sensor_id;sensor_type;location;lat;lon;timestamp;P1;durP1;ratioP1;P2;durP2;ratioP2
18659;SDS011;9459;50.254;19.014;2023-06-22T00:01:26;10.88;;;7.07;;
18659;SDS011;9459;50.254;19.014;2023-06-22T00:03:55;8.93;;;6.10;;
18659;SDS011;9459;50.254;19.014;2023-06-22T00:06:23;7.90;;;6.15;;
18659;SDS011;9459;50.254;19.014;2023-06-22T00:08:52;10.80;;;6.35;;
18659;SDS011;9459;50.254;19.014;2023-06-22T00:11:22;9.93;;;7.15;;
18659;SDS011;9459;50.254;19.014;2023-06-22T00:13:51;10.68;;;7.32;;
18659;SDS011;9459;50.254;19.014;2023-06-22T00:16:19;9.05;;;6.93;;
18659;SDS011;9459;50.254;19.014;2023-06-22T00:18:48;10.15;;;7.63;;
18659;SDS011;9459;50.254;19.014;2023-06-22T00:21:16;8.80;;;6.68;;
18659;SDS011;9459;50.254;19.014;2023-06-22T00:23:47;11.50;;;7.32;;
18659;SDS011;9459;50.254;19.014;2023-06-22T00:26:15;11.35;;;6.63;;
18659;SDS011;9459;50.254;19.014;2023-06-22T00:28:45;10.70;;;7.55;;
18659;SDS011;9459;50.254;19.014;2023-06-22T00:31:13;10.93;;;6.75;;
18659;SDS011;9459;50.254;19.014;2023-06-22T00:33:42;10.30;;;7.57;;
18659;SDS011;9459;50.254;19.014;2023-06-22T00:36:10;9.68;;;7.32;;
18659;SDS011;9459;50.254;19.014;2023-06-22T00:38:43;9.73;;;7.35;;
18659;SDS011;9459;50.254;19.014;2023-06-22T00:41:11;9.95;;;6.65;;
18659;SDS011;9459;50.254;19.014;2023-06-22T00:43:39;12.15;;;7.22;;
18659;SDS011;9459;50.254;19.014;2023-06-22T00:46:10;12.85;;;6.70;;
18659;SDS011;9459;50.254;19.014;2023-06-22T00:48:39;16.48;;;8.27;;
18659;SDS011;9459;50.254;19.014;2023-06-22T00:51:08;13.18;;;7.93;;
18659;SDS011;9459;50.254;19.014;2023-06-22T00:53:36;12.35;;;7.18;;
18659;SDS011;9459;50.254;19.014;2023-06-22T00:56:05;12.95;;;7.38;;
18659;SDS011;9459;50.254;19.014;2023-06-22T00:58:36;11.75;;;7.63;;
18659;SDS011;9459;50.254;19.014;2023-06-22T01:01:08;11.63;;;7.40;;
18659;SDS011;9459;50.254;19.014;2023-06-22T01:03:38;11.52;;;6.93;;
18659;SDS011;9459;50.254;19.014;2023-06-22T01:06:07;13.18;;;7.18;;
18659;SDS011;9459;50.254;19.014;2023-06-22T01:08:38;8.63;;;6.00;;
18659;SDS011;9459;50.254;19.014;2023-06-22T01:11:11;12.80;;;6.82;;
18659;SDS011;9459;50.254;19.014;2023-06-22T01:13:44;12.38;;;6.97;;
18659;SDS011;9459;50.254;19.014;2023-06-22T01:16:17;9.93;;;5.72;;
18659;SDS011;9459;50.254;19.014;2023-06-22T01:18:47;9.50;;;5.78;;
18659;SDS011;9459;50.254;19.014;2023-06-22T01:21:19;9.27;;;6.38;;
18659;SDS011;9459;50.254;19.014;2023-06-22T01:23:55;12.32;;;6.53;;
18659;SDS011;9459;50.254;19.014;2023-06-22T01:26:35;14.63;;;7.10;;
18659;SDS011;9459;50.254;19.014;2023-06-22T01:29:08;11.40;;;6.43;;
18659;SDS011;9459;50.254;19.014;2023-06-22T01:31:40;9.68;;;6.72;;
18659;SDS011;9459;50.254;19.014;2023-06-22T01:34:10;7.32;;;5.85;;
18659;SDS011;9459;50.254;19.014;2023-06-22T01:36:39;11.07;;;6.20;;
18659;SDS011;9459;50.254;19.014;2023-06-22T01:39:08;8.60;;;6.20;;
18659;SDS011;9459;50.254;19.014;2023-06-22T01:41:38;12.93;;;6.40;;
18659;SDS011;9459;50.254;19.014;2023-06-22T01:44:08;12.10;;;5.70;;
18659;SDS011;9459;50.254;19.014;2023-06-22T01:46:37;8.65;;;5.53;;
18659;SDS011;9459;50.254;19.014;2023-06-22T01:49:06;8.93;;;5.75;;
18659;SDS011;9459;50.254;19.014;2023-06-22T01:51:36;8.45;;;5.90;;
18659;SDS011;9459;50.254;19.014;2023-06-22T01:54:05;6.97;;;5.40;;
18659;SDS011;9459;50.254;19.014;2023-06-22T01:56:34;9.40;;;5.30;;
18659;SDS011;9459;50.254;19.014;2023-06-22T01:59:05;8.38;;;5.80;;
18659;SDS011;9459;50.254;19.014;2023-06-22T02:01:40;9.63;;;6.13;;
18659;SDS011;9459;50.254;19.014;2023-06-22T02:04:13;10.57;;;5.60;;
18659;SDS011;9459;50.254;19.014;2023-06-22T02:06:43;8.23;;;5.22;;
18659;SDS011;9459;50.254;19.014;2023-06-22T02:09:14;7.82;;;5.28;;
18659;SDS011;9459;50.254;19.014;2023-06-22T02:11:44;8.15;;;4.82;;
18659;SDS011;9459;50.254;19.014;2023-06-22T02:14:15;9.05;;;5.20;;
18659;SDS011;9459;50.254;19.014;2023-06-22T02:16:45;9.15;;;5.40;;
18659;SDS011;9459;50.254;19.014;2023-06-22T02:19:14;9.25;;;5.53;;
18659;SDS011;9459;50.254;19.014;2023-06-22T02:21:45;9.30;;;6.10;;
18659;SDS011;9459;50.254;19.014;2023-06-22T02:24:13;7.00;;;5.55;;
18659;SDS011;9459;50.254;19.014;2023-06-22T02:26:42;7.68;;;5.57;;
18659;SDS011;9459;50.254;19.014;2023-06-22T02:29:12;7.30;;;5.40;;
18659;SDS011;9459;50.254;19.014;2023-06-22T02:31:42;7.63;;;5.63;;
18659;SDS011;9459;50.254;19.014;2023-06-22T02:34:11;8.73;;;5.38;;
18659;SDS011;9459;50.254;19.014;2023-06-22T02:36:43;7.63;;;6.30;;
18659;SDS011;9459;50.254;19.014;2023-06-22T02:39:18;8.57;;;5.80;;
18659;SDS011;9459;50.254;19.014;2023-06-22T02:41:48;11.38;;;6.03;;
18659;SDS011;9459;50.254;19.014;2023-06-22T02:44:17;10.52;;;6.50;;
18659;SDS011;9459;50.254;19.014;2023-06-22T02:46:47;9.05;;;6.20;;
18659;SDS011;9459;50.254;19.014;2023-06-22T02:49:16;9.48;;;5.90;;
18659;SDS011;9459;50.254;19.014;2023-06-22T02:51:45;8.15;;;6.18;;
18659;SDS011;9459;50.254;19.014;2023-06-22T02:54:14;10.43;;;6.50;;
18659;SDS011;9459;50.254;19.014;2023-06-22T02:56:43;8.43;;;5.45;;
18659;SDS011;9459;50.254;19.014;2023-06-22T02:59:11;9.73;;;5.35;;
18659;SDS011;9459;50.254;19.014;2023-06-22T03:01:40;9.00;;;6.32;;
18659;SDS011;9459;50.254;19.014;2023-06-22T03:04:10;8.57;;;6.18;;
18659;SDS011;9459;50.254;19.014;2023-06-22T03:06:38;9.38;;;5.70;;
18659;SDS011;9459;50.254;19.014;2023-06-22T03:09:07;12.38;;;5.90;;
18659;SDS011;9459;50.254;19.014;2023-06-22T03:11:36;8.82;;;5.50;;
18659;SDS011;9459;50.254;19.014;2023-06-22T03:14:04;10.73;;;5.53;;
18659;SDS011;9459;50.254;19.014;2023-06-22T03:16:33;8.48;;;5.00;;
18659;SDS011;9459;50.254;19.014;2023-06-22T03:19:01;9.43;;;5.68;;
18659;SDS011;9459;50.254;19.014;2023-06-22T03:21:31;10.90;;;5.97;;
18659;SDS011;9459;50.254;19.014;2023-06-22T03:24:00;10.52;;;5.80;;
18659;SDS011;9459;50.254;19.014;2023-06-22T03:26:28;10.82;;;5.70;;
18659;SDS011;9459;50.254;19.014;2023-06-22T03:28:57;14.13;;;6.05;;
18659;SDS011;9459;50.254;19.014;2023-06-22T03:31:25;10.05;;;5.40;;
18659;SDS011;9459;50.254;19.014;2023-06-22T03:33:53;13.02;;;5.65;;
18659;SDS011;9459;50.254;19.014;2023-06-22T03:36:22;10.40;;;4.95;;
18659;SDS011;9459;50.254;19.014;2023-06-22T03:38:52;8.10;;;4.55;;
18659;SDS011;9459;50.254;19.014;2023-06-22T03:41:20;8.95;;;5.18;;
18659;SDS011;9459;50.254;19.014;2023-06-22T03:43:49;10.10;;;5.50;;
18659;SDS011;9459;50.254;19.014;2023-06-22T03:46:17;11.43;;;5.70;;
18659;SDS011;9459;50.254;19.014;2023-06-22T03:48:47;11.73;;;5.88;;
18659;SDS011;9459;50.254;19.014;2023-06-22T03:51:15;10.02;;;5.55;;
18659;SDS011;9459;50.254;19.014;2023-06-22T03:53:43;9.50;;;5.55;;
18659;SDS011;9459;50.254;19.014;2023-06-22T03:56:13;8.52;;;5.13;;
18659;SDS011;9459;50.254;19.014;2023-06-22T03:58:47;5.70;;;4.75;;
18659;SDS011;9459;50.254;19.014;2023-06-22T04:01:15;8.35;;;4.60;;
18659;SDS011;9459;50.254;19.014;2023-06-22T04:03:45;9.40;;;5.28;;
18659;SDS011;9459;50.254;19.014;2023-06-22T04:06:15;11.13;;;5.70;;
18659;SDS011;9459;50.254;19.014;2023-06-22T04:08:45;10.15;;;5.43;;
18659;SDS011;9459;50.254;19.014;2023-06-22T04:11:16;8.77;;;4.97;;
18659;SDS011;9459;50.254;19.014;2023-06-22T04:13:44;8.43;;;5.22;;
18659;SDS011;9459;50.254;19.014;2023-06-22T04:16:13;8.55;;;5.30;;
18659;SDS011;9459;50.254;19.014;2023-06-22T04:18:41;10.70;;;5.93;;
18659;SDS011;9459;50.254;19.014;2023-06-22T04:21:10;9.88;;;5.55;;
18659;SDS011;9459;50.254;19.014;2023-06-22T04:23:38;12.65;;;5.93;;
18659;SDS011;9459;50.254;19.014;2023-06-22T04:26:07;6.65;;;5.05;;
18659;SDS011;9459;50.254;19.014;2023-06-22T04:28:37;9.20;;;5.60;;
18659;SDS011;9459;50.254;19.014;2023-06-22T04:31:05;8.40;;;5.18;;
18659;SDS011;9459;50.254;19.014;2023-06-22T04:33:34;10.70;;;6.00;;
18659;SDS011;9459;50.254;19.014;2023-06-22T04:36:02;8.93;;;5.65;;
18659;SDS011;9459;50.254;19.014;2023-06-22T04:38:31;9.77;;;5.82;;
18659;SDS011;9459;50.254;19.014;2023-06-22T04:41:00;8.93;;;5.85;;
18659;SDS011;9459;50.254;19.014;2023-06-22T04:43:30;9.90;;;7.00;;
18659;SDS011;9459;50.254;19.014;2023-06-22T04:46:00;10.65;;;6.78;;
18659;SDS011;9459;50.254;19.014;2023-06-22T04:48:30;10.93;;;7.43;;
18659;SDS011;9459;50.254;19.014;2023-06-22T04:51:00;8.63;;;6.07;;
18659;SDS011;9459;50.254;19.014;2023-06-22T04:53:31;11.95;;;6.78;;
18659;SDS011;9459;50.254;19.014;2023-06-22T04:56:00;10.07;;;7.47;;
18659;SDS011;9459;50.254;19.014;2023-06-22T04:58:31;12.65;;;7.90;;
18659;SDS011;9459;50.254;19.014;2023-06-22T05:01:01;10.93;;;9.30;;
18659;SDS011;9459;50.254;19.014;2023-06-22T05:03:30;10.93;;;9.82;;
18659;SDS011;9459;50.254;19.014;2023-06-22T05:05:59;11.23;;;9.07;;
18659;SDS011;9459;50.254;19.014;2023-06-22T05:08:28;10.63;;;9.50;;
18659;SDS011;9459;50.254;19.014;2023-06-22T05:10:56;11.70;;;10.25;;
18659;SDS011;9459;50.254;19.014;2023-06-22T05:13:31;12.23;;;10.02;;
18659;SDS011;9459;50.254;19.014;2023-06-22T05:16:01;13.35;;;10.80;;
18659;SDS011;9459;50.254;19.014;2023-06-22T05:18:30;13.13;;;11.40;;
18659;SDS011;9459;50.254;19.014;2023-06-22T05:20:59;12.98;;;11.68;;
18659;SDS011;9459;50.254;19.014;2023-06-22T05:23:28;14.23;;;12.73;;
18659;SDS011;9459;50.254;19.014;2023-06-22T05:25:56;12.95;;;11.63;;
18659;SDS011;9459;50.254;19.014;2023-06-22T05:28:25;13.18;;;11.77;;
18659;SDS011;9459;50.254;19.014;2023-06-22T05:30:54;17.30;;;15.18;;
18659;SDS011;9459;50.254;19.014;2023-06-22T05:33:24;13.15;;;11.85;;
18659;SDS011;9459;50.254;19.014;2023-06-22T05:35:52;13.43;;;12.13;;
18659;SDS011;9459;50.254;19.014;2023-06-22T05:38:21;14.60;;;12.23;;
18659;SDS011;9459;50.254;19.014;2023-06-22T05:40:49;15.18;;;12.00;;
18659;SDS011;9459;50.254;19.014;2023-06-22T05:43:18;12.23;;;11.02;;
18659;SDS011;9459;50.254;19.014;2023-06-22T05:45:46;14.65;;;11.57;;
18659;SDS011;9459;50.254;19.014;2023-06-22T05:48:15;16.95;;;13.07;;
18659;SDS011;9459;50.254;19.014;2023-06-22T05:50:45;14.25;;;11.30;;
18659;SDS011;9459;50.254;19.014;2023-06-22T05:53:13;16.30;;;12.63;;
18659;SDS011;9459;50.254;19.014;2023-06-22T05:55:42;14.32;;;12.48;;
18659;SDS011;9459;50.254;19.014;2023-06-22T05:58:10;15.35;;;13.75;;
18659;SDS011;9459;50.254;19.014;2023-06-22T06:00:40;15.18;;;13.68;;
18659;SDS011;9459;50.254;19.014;2023-06-22T06:03:08;15.15;;;13.65;;
18659;SDS011;9459;50.254;19.014;2023-06-22T06:05:41;13.93;;;12.52;;
18659;SDS011;9459;50.254;19.014;2023-06-22T06:08:11;18.02;;;16.23;;
18659;SDS011;9459;50.254;19.014;2023-06-22T06:10:40;12.35;;;11.15;;
18659;SDS011;9459;50.254;19.014;2023-06-22T06:13:08;13.07;;;11.82;;
18659;SDS011;9459;50.254;19.014;2023-06-22T06:15:37;14.18;;;12.77;;
18659;SDS011;9459;50.254;19.014;2023-06-22T06:18:05;14.90;;;13.40;;
18659;SDS011;9459;50.254;19.014;2023-06-22T06:20:34;15.15;;;12.80;;
18659;SDS011;9459;50.254;19.014;2023-06-22T06:23:02;14.05;;;12.57;;
18659;SDS011;9459;50.254;19.014;2023-06-22T06:25:32;13.45;;;12.15;;
18659;SDS011;9459;50.254;19.014;2023-06-22T06:28:01;13.00;;;11.63;;
18659;SDS011;9459;50.254;19.014;2023-06-22T06:30:29;14.15;;;12.85;;
18659;SDS011;9459;50.254;19.014;2023-06-22T06:32:59;13.43;;;12.07;;
18659;SDS011;9459;50.254;19.014;2023-06-22T06:35:27;13.70;;;12.40;;
18659;SDS011;9459;50.254;19.014;2023-06-22T06:37:56;12.70;;;11.50;;
18659;SDS011;9459;50.254;19.014;2023-06-22T06:40:25;12.75;;;11.55;;
18659;SDS011;9459;50.254;19.014;2023-06-22T06:42:55;13.07;;;11.88;;
18659;SDS011;9459;50.254;19.014;2023-06-22T06:45:24;11.95;;;10.82;;
18659;SDS011;9459;50.254;19.014;2023-06-22T06:47:55;15.82;;;14.20;;
18659;SDS011;9459;50.254;19.014;2023-06-22T06:50:23;12.25;;;11.02;;
18659;SDS011;9459;50.254;19.014;2023-06-22T06:52:52;14.27;;;12.82;;
18659;SDS011;9459;50.254;19.014;2023-06-22T06:55:21;14.60;;;12.77;;
18659;SDS011;9459;50.254;19.014;2023-06-22T06:57:52;13.88;;;12.68;;
18659;SDS011;9459;50.254;19.014;2023-06-22T07:00:22;13.73;;;12.18;;
18659;SDS011;9459;50.254;19.014;2023-06-22T07:02:52;13.20;;;11.90;;
18659;SDS011;9459;50.254;19.014;2023-06-22T07:05:20;12.60;;;11.45;;
18659;SDS011;9459;50.254;19.014;2023-06-22T07:07:49;17.42;;;11.88;;
18659;SDS011;9459;50.254;19.014;2023-06-22T07:10:18;14.55;;;11.43;;
18659;SDS011;9459;50.254;19.014;2023-06-22T07:12:46;11.57;;;10.20;;
18659;SDS011;9459;50.254;19.014;2023-06-22T07:15:15;11.30;;;10.20;;
18659;SDS011;9459;50.254;19.014;2023-06-22T07:17:45;11.88;;;10.63;;
18659;SDS011;9459;50.254;19.014;2023-06-22T07:20:13;12.02;;;10.88;;
18659;SDS011;9459;50.254;19.014;2023-06-22T07:22:43;12.63;;;11.32;;
18659;SDS011;9459;50.254;19.014;2023-06-22T07:25:12;11.43;;;10.27;;
18659;SDS011;9459;50.254;19.014;2023-06-22T07:27:45;10.50;;;9.50;;
18659;SDS011;9459;50.254;19.014;2023-06-22T07:30:15;11.60;;;10.02;;
18659;SDS011;9459;50.254;19.014;2023-06-22T07:32:45;13.27;;;10.82;;
18659;SDS011;9459;50.254;19.014;2023-06-22T07:35:13;10.95;;;9.93;;
18659;SDS011;9459;50.254;19.014;2023-06-22T07:37:43;11.07;;;9.98;;
18659;SDS011;9459;50.254;19.014;2023-06-22T07:40:12;10.93;;;9.80;;
18659;SDS011;9459;50.254;19.014;2023-06-22T07:42:41;9.88;;;8.88;;
18659;SDS011;9459;50.254;19.014;2023-06-22T07:45:09;10.90;;;9.73;;
18659;SDS011;9459;50.254;19.014;2023-06-22T07:47:38;10.63;;;8.93;;
18659;SDS011;9459;50.254;19.014;2023-06-22T07:50:08;9.32;;;8.30;;
18659;SDS011;9459;50.254;19.014;2023-06-22T07:52:37;10.65;;;9.55;;
18659;SDS011;9459;50.254;19.014;2023-06-22T07:55:06;9.90;;;8.90;;
18659;SDS011;9459;50.254;19.014;2023-06-22T07:57:35;8.95;;;8.00;;
18659;SDS011;9459;50.254;19.014;2023-06-22T08:00:04;8.50;;;7.70;;
18659;SDS011;9459;50.254;19.014;2023-06-22T08:02:40;8.13;;;7.43;;
18659;SDS011;9459;50.254;19.014;2023-06-22T08:05:10;8.20;;;7.33;;
18659;SDS011;9459;50.254;19.014;2023-06-22T08:07:48;8.00;;;7.20;;
18659;SDS011;9459;50.254;19.014;2023-06-22T08:10:17;7.43;;;6.50;;
18659;SDS011;9459;50.254;19.014;2023-06-22T08:12:45;7.22;;;6.53;;
18659;SDS011;9459;50.254;19.014;2023-06-22T08:15:14;6.30;;;5.80;;
18659;SDS011;9459;50.254;19.014;2023-06-22T08:17:43;5.95;;;5.45;;
18659;SDS011;9459;50.254;19.014;2023-06-22T08:20:13;6.72;;;6.15;;
18659;SDS011;9459;50.254;19.014;2023-06-22T08:22:42;7.15;;;6.45;;
18659;SDS011;9459;50.254;19.014;2023-06-22T08:25:11;6.90;;;6.30;;
18659;SDS011;9459;50.254;19.014;2023-06-22T08:27:44;7.07;;;4.78;;
18659;SDS011;9459;50.254;19.014;2023-06-22T08:30:13;5.75;;;5.25;;
18659;SDS011;9459;50.254;19.014;2023-06-22T08:32:41;6.35;;;5.72;;
18659;SDS011;9459;50.254;19.014;2023-06-22T08:35:10;6.85;;;6.22;;
18659;SDS011;9459;50.254;19.014;2023-06-22T08:37:40;5.78;;;5.25;;
18659;SDS011;9459;50.254;19.014;2023-06-22T08:40:09;5.00;;;4.60;;
18659;SDS011;9459;50.254;19.014;2023-06-22T08:42:40;6.10;;;5.50;;
18659;SDS011;9459;50.254;19.014;2023-06-22T08:45:09;5.82;;;5.32;;
18659;SDS011;9459;50.254;19.014;2023-06-22T08:47:38;5.90;;;5.32;;
18659;SDS011;9459;50.254;19.014;2023-06-22T08:50:08;5.68;;;5.25;;
18659;SDS011;9459;50.254;19.014;2023-06-22T08:52:37;6.38;;;5.78;;
18659;SDS011;9459;50.254;19.014;2023-06-22T08:55:10;6.60;;;6.03;;
18659;SDS011;9459;50.254;19.014;2023-06-22T08:57:38;6.30;;;5.70;;
18659;SDS011;9459;50.254;19.014;2023-06-22T09:00:07;5.88;;;5.28;;
18659;SDS011;9459;50.254;19.014;2023-06-22T09:02:44;5.80;;;5.40;;
18659;SDS011;9459;50.254;19.014;2023-06-22T09:05:13;6.20;;;5.65;;
18659;SDS011;9459;50.254;19.014;2023-06-22T09:07:42;5.32;;;4.93;;
18659;SDS011;9459;50.254;19.014;2023-06-22T09:10:13;6.43;;;4.75;;
18659;SDS011;9459;50.254;19.014;2023-06-22T09:15:10;5.45;;;4.95;;
18659;SDS011;9459;50.254;19.014;2023-06-22T09:17:43;7.32;;;5.32;;
18659;SDS011;9459;50.254;19.014;2023-06-22T09:20:14;5.60;;;5.15;;
18659;SDS011;9459;50.254;19.014;2023-06-22T09:22:42;5.40;;;4.93;;
18659;SDS011;9459;50.254;19.014;2023-06-22T09:25:12;5.30;;;4.80;;
18659;SDS011;9459;50.254;19.014;2023-06-22T09:27:41;7.13;;;5.50;;
18659;SDS011;9459;50.254;19.014;2023-06-22T09:30:13;6.33;;;5.73;;
18659;SDS011;9459;50.254;19.014;2023-06-22T09:32:41;7.30;;;5.20;;
18659;SDS011;9459;50.254;19.014;2023-06-22T09:35:11;5.40;;;4.85;;
18659;SDS011;9459;50.254;19.014;2023-06-22T09:37:40;5.78;;;5.05;;
18659;SDS011;9459;50.254;19.014;2023-06-22T09:40:09;5.18;;;4.78;;
18659;SDS011;9459;50.254;19.014;2023-06-22T09:42:41;6.00;;;5.50;;
18659;SDS011;9459;50.254;19.014;2023-06-22T09:45:10;6.28;;;5.50;;
18659;SDS011;9459;50.254;19.014;2023-06-22T09:47:38;5.93;;;5.43;;
18659;SDS011;9459;50.254;19.014;2023-06-22T09:50:07;5.30;;;4.90;;
18659;SDS011;9459;50.254;19.014;2023-06-22T09:52:36;6.43;;;5.82;;
18659;SDS011;9459;50.254;19.014;2023-06-22T09:55:08;5.50;;;5.00;;
18659;SDS011;9459;50.254;19.014;2023-06-22T09:57:36;6.20;;;5.70;;
18659;SDS011;9459;50.254;19.014;2023-06-22T10:00:07;5.13;;;4.73;;
18659;SDS011;9459;50.254;19.014;2023-06-22T10:02:39;5.50;;;5.10;;
18659;SDS011;9459;50.254;19.014;2023-06-22T10:05:08;7.50;;;5.07;;
18659;SDS011;9459;50.254;19.014;2023-06-22T10:07:38;7.57;;;4.95;;
18659;SDS011;9459;50.254;19.014;2023-06-22T10:10:12;5.93;;;5.43;;
18659;SDS011;9459;50.254;19.014;2023-06-22T10:15:11;6.95;;;4.68;;
18659;SDS011;9459;50.254;19.014;2023-06-22T10:17:40;5.95;;;5.10;;
18659;SDS011;9459;50.254;19.014;2023-06-22T10:20:09;6.38;;;5.78;;
18659;SDS011;9459;50.254;19.014;2023-06-22T10:22:41;7.10;;;5.55;;
18659;SDS011;9459;50.254;19.014;2023-06-22T10:25:11;5.43;;;4.97;;
18659;SDS011;9459;50.254;19.014;2023-06-22T10:27:40;6.10;;;5.45;;
18659;SDS011;9459;50.254;19.014;2023-06-22T10:30:11;6.00;;;5.50;;
18659;SDS011;9459;50.254;19.014;2023-06-22T10:32:41;5.80;;;5.30;;
18659;SDS011;9459;50.254;19.014;2023-06-22T10:35:11;5.70;;;5.25;;
18659;SDS011;9459;50.254;19.014;2023-06-22T10:37:43;5.43;;;5.03;;
18659;SDS011;9459;50.254;19.014;2023-06-22T10:40:12;4.90;;;4.50;;
18659;SDS011;9459;50.254;19.014;2023-06-22T10:42:42;4.93;;;4.55;;
18659;SDS011;9459;50.254;19.014;2023-06-22T10:45:12;6.22;;;5.15;;
18659;SDS011;9459;50.254;19.014;2023-06-22T10:47:41;6.07;;;5.53;;
18659;SDS011;9459;50.254;19.014;2023-06-22T10:50:11;4.85;;;4.45;;
18659;SDS011;9459;50.254;19.014;2023-06-22T10:52:39;5.70;;;5.18;;
18659;SDS011;9459;50.254;19.014;2023-06-22T10:57:37;6.07;;;5.57;;
18659;SDS011;9459;50.254;19.014;2023-06-22T11:00:11;5.45;;;4.93;;
18659;SDS011;9459;50.254;19.014;2023-06-22T11:02:42;5.55;;;5.15;;
18659;SDS011;9459;50.254;19.014;2023-06-22T11:05:11;5.88;;;5.38;;
18659;SDS011;9459;50.254;19.014;2023-06-22T11:07:41;5.80;;;5.30;;
18659;SDS011;9459;50.254;19.014;2023-06-22T11:10:15;6.05;;;5.28;;
18659;SDS011;9459;50.254;19.014;2023-06-22T11:12:43;5.30;;;4.90;;
18659;SDS011;9459;50.254;19.014;2023-06-22T11:15:13;7.15;;;5.28;;
18659;SDS011;9459;50.254;19.014;2023-06-22T11:20:11;5.60;;;5.13;;
18659;SDS011;9459;50.254;19.014;2023-06-22T11:22:40;5.60;;;5.10;;
18659;SDS011;9459;50.254;19.014;2023-06-22T11:25:09;5.88;;;5.38;;
18659;SDS011;9459;50.254;19.014;2023-06-22T11:27:39;6.63;;;6.03;;
18659;SDS011;9459;50.254;19.014;2023-06-22T11:30:08;5.85;;;5.22;;
18659;SDS011;9459;50.254;19.014;2023-06-22T11:32:38;6.20;;;5.70;;
18659;SDS011;9459;50.254;19.014;2023-06-22T11:35:07;5.38;;;4.88;;
18659;SDS011;9459;50.254;19.014;2023-06-22T11:37:38;5.07;;;4.65;;
18659;SDS011;9459;50.254;19.014;2023-06-22T11:40:08;5.60;;;5.13;;
18659;SDS011;9459;50.254;19.014;2023-06-22T11:42:37;6.57;;;5.97;;
18659;SDS011;9459;50.254;19.014;2023-06-22T11:45:06;6.25;;;5.65;;
18659;SDS011;9459;50.254;19.014;2023-06-22T11:47:35;7.90;;;6.03;;
18659;SDS011;9459;50.254;19.014;2023-06-22T11:50:06;6.80;;;6.20;;
18659;SDS011;9459;50.254;19.014;2023-06-22T11:52:36;6.45;;;5.82;;
18659;SDS011;9459;50.254;19.014;2023-06-22T11:55:06;6.68;;;5.95;;
18659;SDS011;9459;50.254;19.014;2023-06-22T11:57:36;9.07;;;6.20;;
18659;SDS011;9459;50.254;19.014;2023-06-22T12:00:05;9.20;;;6.50;;
18659;SDS011;9459;50.254;19.014;2023-06-22T12:02:46;8.13;;;6.82;;
18659;SDS011;9459;50.254;19.014;2023-06-22T12:05:17;10.45;;;7.20;;
18659;SDS011;9459;50.254;19.014;2023-06-22T12:07:47;8.10;;;7.30;;
18659;SDS011;9459;50.254;19.014;2023-06-22T12:10:16;7.93;;;7.13;;
18659;SDS011;9459;50.254;19.014;2023-06-22T12:12:44;8.20;;;6.90;;
18659;SDS011;9459;50.254;19.014;2023-06-22T12:15:13;7.80;;;7.10;;
18659;SDS011;9459;50.254;19.014;2023-06-22T12:17:41;6.82;;;6.13;;
18659;SDS011;9459;50.254;19.014;2023-06-22T12:20:10;7.32;;;6.72;;
18659;SDS011;9459;50.254;19.014;2023-06-22T12:22:41;7.93;;;6.55;;
18659;SDS011;9459;50.254;19.014;2023-06-22T12:25:10;7.13;;;6.38;;
18659;SDS011;9459;50.254;19.014;2023-06-22T12:27:38;7.03;;;6.30;;
18659;SDS011;9459;50.254;19.014;2023-06-22T12:30:08;9.82;;;6.18;;
18659;SDS011;9459;50.254;19.014;2023-06-22T12:32:36;7.80;;;7.00;;
18659;SDS011;9459;50.254;19.014;2023-06-22T12:35:06;9.40;;;7.05;;
18659;SDS011;9459;50.254;19.014;2023-06-22T12:37:41;6.43;;;5.82;;
18659;SDS011;9459;50.254;19.014;2023-06-22T12:40:11;8.35;;;7.45;;
18659;SDS011;9459;50.254;19.014;2023-06-22T12:42:39;8.85;;;7.20;;
18659;SDS011;9459;50.254;19.014;2023-06-22T12:45:09;9.73;;;6.97;;
18659;SDS011;9459;50.254;19.014;2023-06-22T12:47:38;7.90;;;7.20;;
18659;SDS011;9459;50.254;19.014;2023-06-22T12:50:07;8.70;;;6.60;;
18659;SDS011;9459;50.254;19.014;2023-06-22T12:52:36;8.35;;;7.55;;
18659;SDS011;9459;50.254;19.014;2023-06-22T12:55:09;8.00;;;7.25;;
18659;SDS011;9459;50.254;19.014;2023-06-22T12:57:38;9.10;;;7.10;;
18659;SDS011;9459;50.254;19.014;2023-06-22T13:00:07;8.35;;;6.72;;
18659;SDS011;9459;50.254;19.014;2023-06-22T13:02:37;7.45;;;6.47;;
18659;SDS011;9459;50.254;19.014;2023-06-22T13:05:06;7.65;;;7.03;;
18659;SDS011;9459;50.254;19.014;2023-06-22T13:07:35;8.55;;;7.75;;
18659;SDS011;9459;50.254;19.014;2023-06-22T13:10:05;8.57;;;7.67;;
18659;SDS011;9459;50.254;19.014;2023-06-22T13:12:36;7.53;;;6.82;;
18659;SDS011;9459;50.254;19.014;2023-06-22T13:15:05;8.10;;;7.20;;
18659;SDS011;9459;50.254;19.014;2023-06-22T13:17:34;7.72;;;7.00;;
18659;SDS011;9459;50.254;19.014;2023-06-22T13:20:04;8.50;;;7.28;;
18659;SDS011;9459;50.254;19.014;2023-06-22T13:22:34;7.53;;;6.83;;
18659;SDS011;9459;50.254;19.014;2023-06-22T13:25:07;6.88;;;6.20;;
18659;SDS011;9459;50.254;19.014;2023-06-22T13:27:40;7.60;;;6.90;;
18659;SDS011;9459;50.254;19.014;2023-06-22T13:30:10;8.27;;;7.20;;
18659;SDS011;9459;50.254;19.014;2023-06-22T13:32:41;6.78;;;6.07;;
18659;SDS011;9459;50.254;19.014;2023-06-22T13:35:10;9.10;;;7.63;;
18659;SDS011;9459;50.254;19.014;2023-06-22T13:37:39;8.23;;;6.40;;
18659;SDS011;9459;50.254;19.014;2023-06-22T13:40:08;7.30;;;6.60;;
18659;SDS011;9459;50.254;19.014;2023-06-22T13:42:37;8.05;;;7.22;;
18659;SDS011;9459;50.254;19.014;2023-06-22T13:45:07;7.20;;;6.50;;
18659;SDS011;9459;50.254;19.014;2023-06-22T13:47:36;8.32;;;7.47;;
18659;SDS011;9459;50.254;19.014;2023-06-22T13:50:05;7.63;;;6.90;;
18659;SDS011;9459;50.254;19.014;2023-06-22T13:52:34;6.97;;;6.28;;
18659;SDS011;9459;50.254;19.014;2023-06-22T13:55:03;9.20;;;6.82;;
18659;SDS011;9459;50.254;19.014;2023-06-22T13:57:33;7.05;;;6.35;;
18659;SDS011;9459;50.254;19.014;2023-06-22T14:00:02;6.97;;;6.28;;
18659;SDS011;9459;50.254;19.014;2023-06-22T14:02:33;7.00;;;6.30;;
18659;SDS011;9459;50.254;19.014;2023-06-22T14:07:31;7.47;;;6.78;;
18659;SDS011;9459;50.254;19.014;2023-06-22T14:10:00;6.47;;;5.88;;
18659;SDS011;9459;50.254;19.014;2023-06-22T14:12:28;7.90;;;7.00;;
18659;SDS011;9459;50.254;19.014;2023-06-22T14:14:57;7.78;;;6.93;;
18659;SDS011;9459;50.254;19.014;2023-06-22T14:17:25;7.80;;;7.10;;
18659;SDS011;9459;50.254;19.014;2023-06-22T14:19:55;9.23;;;6.53;;
18659;SDS011;9459;50.254;19.014;2023-06-22T14:22:23;7.22;;;6.63;;
18659;SDS011;9459;50.254;19.014;2023-06-22T14:24:54;7.25;;;6.53;;
18659;SDS011;9459;50.254;19.014;2023-06-22T14:27:24;6.70;;;6.00;;
18659;SDS011;9459;50.254;19.014;2023-06-22T14:29:53;8.13;;;7.18;;
18659;SDS011;9459;50.254;19.014;2023-06-22T14:32:21;8.13;;;7.35;;
18659;SDS011;9459;50.254;19.014;2023-06-22T14:34:51;8.35;;;7.35;;
18659;SDS011;9459;50.254;19.014;2023-06-22T14:37:21;9.73;;;7.47;;
18659;SDS011;9459;50.254;19.014;2023-06-22T14:39:49;8.50;;;7.15;;
18659;SDS011;9459;50.254;19.014;2023-06-22T14:42:17;10.18;;;7.07;;
18659;SDS011;9459;50.254;19.014;2023-06-22T14:44:46;10.57;;;7.82;;
18659;SDS011;9459;50.254;19.014;2023-06-22T14:47:15;10.82;;;8.48;;
18659;SDS011;9459;50.254;19.014;2023-06-22T14:49:45;8.70;;;7.90;;
18659;SDS011;9459;50.254;19.014;2023-06-22T14:52:13;10.20;;;8.50;;
18659;SDS011;9459;50.254;19.014;2023-06-22T14:54:43;8.25;;;6.90;;
18659;SDS011;9459;50.254;19.014;2023-06-22T14:57:12;8.50;;;7.40;;
18659;SDS011;9459;50.254;19.014;2023-06-22T14:59:44;8.35;;;7.45;;
18659;SDS011;9459;50.254;19.014;2023-06-22T15:02:13;9.45;;;7.95;;
18659;SDS011;9459;50.254;19.014;2023-06-22T15:04:41;8.75;;;7.95;;
18659;SDS011;9459;50.254;19.014;2023-06-22T15:07:10;8.77;;;7.80;;